Mc Clave, Colorado
Current Conditions -  °F | °C
As of 12:53 AM on Saturday 25 Oct 2014 (Local Time) from KLAA Reporting Station
Clear Clear  
Wind Chill: 46°   Ceiling: Unl
Heat Index: 46°   Visibility: 9mi
Dew Point: 38°   Wind: 0mph
Humidity: 73%   Direction: NA
Pressure: 30.1"   Gusts: NA
Location:  38.0584°N, 102.928°W
Report Text: KLAA 250653Z AUTO 00000KT 9SM CLR 08/03 A3010 RMK AO2 SLP157 T00780033 403110044
Loading
Personal Weather Stations






























Interactive Weather Map
Tropical Storm Tracking
New forecast layout! Learn more

10-Day Weather Forecast

Advertisements
Track Severe Weather on mobile